Strona główna
METAR-TAF:

METAR-TAF

Lotnisko :

Port lotniczy Vršac

Vršac, Serbia

Szerokość geograficzna: 45-09N, Długość geograficzna: 021-19E, wysokość: 83 m

Aktualna obserwacja pogody

Raport powstał 24 minut temu, godzina 10:30 UTC
Wiatr 3 kt z kierunków zmiennych
Temperatura 14°C
Wilgotność 41%
Ciśnienie 1014 hPa
Widzialność 10 km lub więcej
Brak chmur poniżej 1500 m i brak chmur cumulonimbus

METAR: LYVR 031030Z VRB03KT CAVOK 14/01 Q1014 NOSIG

czas: 12:54 (10:54 UTC)

Prognoza

Raport powstał 5 godziny i 54 minut temu, godzina 05:00 UTC
Prognoza ważna od 03 godzina 06 UTC do 04 godzina 06 UTC
Wiatr 12 kt od zachód
Widzialność 10 km lub więcej
Brak chmur poniżej 1500 m i brak chmur cumulonimbus

TAF: LYVR 030500Z 0306/0406 26012KT CAVOK TX14/0313Z TN01/0405Z

Obserwacja i prognoza pogody dla ponad 4000 lotnisk (raport METAR i TAF).

Dostępne stacje oznaczono żółtymi i czerwonymi punktami na mapie.

Najedź kursorem aby zobaczyć nazwę stacji.

Kliknij aby zobaczyć obserwacje i prognozy pogody.

Aby zmienić mapę: kliknij na zielony przycisk z czarnym krzyżykiem, aby powiększyć; na zielony przycisk z myślnikiem, aby pomniejszyć; na zielone strzałki, aby przejść do map sąsiednich.


METAR-TAF: